Sarzana, Italy

1:01 PM CEST on August 01, 2015 (GMT +0200)
La Serra | | Change Station
CLOSE
Current Station
Personal Weather Station
Location: Lerici, SP
Elevation: 623 ft
Nearby Weather Stations
Active Advisory: Thunderstorms

Elev 623 ft 44.07 °N, 9.92 °E | Updated 6 minutes ago

Clear
Clear
79.3 °F
Feels Like 80 °F
N
4.2
Wind Variable Wind from South
Gusts 5.4 mph

Today
High -- | Low -- °F
--% Chance of Precip.
Yesterday
High -- | Low -- °F
Precip. -- in
6:07 AM 8:44 PM
Full, 99% visible
Pressure 29.92 in
Visibility -9999.0 miles
Clouds
Heat Index 80 °F
Dew Point 61 °F
Humidity 53%
Rainfall 0.00 in
Snow Depth Not available.
UV Not available.
Pollen Not available.
Air Quality Not available.
Flu Activity Not available.
METAR LIRP 011045Z 18003KT 130V240 CAVOK 29/18 Q1013 NOSIG

More Conditions Fewer Conditions

Pressure 29.92 in
Visibility -9999.0 miles
Clouds
Heat Index 80 °F
Dew Point 61 °F
Humidity 53%
Rainfall 0.00 in
Snow Depth Not available.
UV Not available.
Pollen Not available.
Air Quality Not available.
Flu Activity Not available.
METAR LIRP 011045Z 18003KT 130V240 CAVOK 29/18 Q1013 NOSIG

More Conditions Fewer Conditions

10-Day Weather Forecast

×

Almanac

Astronomy

Aug. 01, 2015 Rise Set
Actual Time
Civil Twilight
Nautical Twilight
Astronomical Twilight
Moon
Length of Visible Light
Length of Day
Tomorrow will be .
, % of the Moon is Illuminated

Today's Extremes

Country Highs Country Lows

Community

WunderPhotos

Upload Photos

1,842,905 photos uploaded!

WunderBlogs® & News

Nearby

Air Quality

  Air Quality AQ Index Pollutant
Not available.

Snow Depth

Station Depth Elevation

Earthquake Activity

City Distance Mag. Time & Date
Minimum magnitude displayed is 2.5.

Coastal Water Temperatures

Place Temperature

Stations

Nearby Weather Stations

Station Location Temp. Windchill Dew Point Humidity Wind Precip. Elev Updated Type